sensor_id;sensor_type;location;lat;lon;timestamp;temperature;humidity
19680;DHT22;9989;48.962;9.182;2023-12-29T00:01:17;10.40;99.90
19680;DHT22;9989;48.962;9.182;2023-12-29T00:03:43;10.40;99.90
19680;DHT22;9989;48.962;9.182;2023-12-29T00:06:09;10.40;99.90
19680;DHT22;9989;48.962;9.182;2023-12-29T00:08:36;10.40;99.90
19680;DHT22;9989;48.962;9.182;2023-12-29T00:11:02;10.40;99.90
19680;DHT22;9989;48.962;9.182;2023-12-29T00:13:28;10.30;99.90
19680;DHT22;9989;48.962;9.182;2023-12-29T00:15:54;10.30;99.90
19680;DHT22;9989;48.962;9.182;2023-12-29T00:18:21;10.30;99.90
19680;DHT22;9989;48.962;9.182;2023-12-29T00:20:47;10.30;99.90
19680;DHT22;9989;48.962;9.182;2023-12-29T00:23:13;10.20;99.90
19680;DHT22;9989;48.962;9.182;2023-12-29T00:25:39;10.20;99.90
19680;DHT22;9989;48.962;9.182;2023-12-29T00:28:05;10.20;99.90
19680;DHT22;9989;48.962;9.182;2023-12-29T00:30:31;10.30;99.90
19680;DHT22;9989;48.962;9.182;2023-12-29T00:32:57;10.30;99.90
19680;DHT22;9989;48.962;9.182;2023-12-29T00:35:23;10.30;99.90
19680;DHT22;9989;48.962;9.182;2023-12-29T00:37:50;10.40;99.90
19680;DHT22;9989;48.962;9.182;2023-12-29T00:40:16;10.40;99.90
19680;DHT22;9989;48.962;9.182;2023-12-29T00:42:42;10.40;99.90
19680;DHT22;9989;48.962;9.182;2023-12-29T00:45:07;10.40;99.90
19680;DHT22;9989;48.962;9.182;2023-12-29T00:47:33;10.50;99.90
19680;DHT22;9989;48.962;9.182;2023-12-29T00:50:00;10.50;99.90
19680;DHT22;9989;48.962;9.182;2023-12-29T00:52:26;10.50;99.90
19680;DHT22;9989;48.962;9.182;2023-12-29T00:54:52;10.60;99.90
19680;DHT22;9989;48.962;9.182;2023-12-29T00:57:17;10.60;99.90
19680;DHT22;9989;48.962;9.182;2023-12-29T00:59:43;10.60;99.90
19680;DHT22;9989;48.962;9.182;2023-12-29T01:02:09;10.60;99.90
19680;DHT22;9989;48.962;9.182;2023-12-29T01:04:37;10.60;99.90
19680;DHT22;9989;48.962;9.182;2023-12-29T01:07:04;10.60;99.90
19680;DHT22;9989;48.962;9.182;2023-12-29T01:09:30;10.60;99.90
19680;DHT22;9989;48.962;9.182;2023-12-29T01:11:56;10.60;99.90
19680;DHT22;9989;48.962;9.182;2023-12-29T01:14:21;10.50;99.90
19680;DHT22;9989;48.962;9.182;2023-12-29T01:16:47;10.60;99.90
19680;DHT22;9989;48.962;9.182;2023-12-29T01:19:14;10.50;99.90
19680;DHT22;9989;48.962;9.182;2023-12-29T01:21:39;10.40;99.90
19680;DHT22;9989;48.962;9.182;2023-12-29T01:24:05;10.40;99.90
19680;DHT22;9989;48.962;9.182;2023-12-29T01:26:37;10.40;99.90
19680;DHT22;9989;48.962;9.182;2023-12-29T01:29:02;10.50;99.90
19680;DHT22;9989;48.962;9.182;2023-12-29T01:31:31;10.50;99.90
19680;DHT22;9989;48.962;9.182;2023-12-29T01:33:56;10.50;99.90
19680;DHT22;9989;48.962;9.182;2023-12-29T01:36:22;10.50;99.90
19680;DHT22;9989;48.962;9.182;2023-12-29T01:38:48;10.50;99.90
19680;DHT22;9989;48.962;9.182;2023-12-29T01:41:14;10.50;99.90
19680;DHT22;9989;48.962;9.182;2023-12-29T01:46:29;10.50;99.90
19680;DHT22;9989;48.962;9.182;2023-12-29T01:48:55;10.50;99.90
19680;DHT22;9989;48.962;9.182;2023-12-29T01:51:25;10.50;99.90
19680;DHT22;9989;48.962;9.182;2023-12-29T01:53:52;10.60;99.90
19680;DHT22;9989;48.962;9.182;2023-12-29T01:56:20;10.60;99.90
19680;DHT22;9989;48.962;9.182;2023-12-29T01:58:48;10.60;99.90
19680;DHT22;9989;48.962;9.182;2023-12-29T02:01:15;10.60;99.90
19680;DHT22;9989;48.962;9.182;2023-12-29T02:03:41;10.60;99.90
19680;DHT22;9989;48.962;9.182;2023-12-29T02:06:09;10.60;99.90
19680;DHT22;9989;48.962;9.182;2023-12-29T02:08:37;10.70;99.90
19680;DHT22;9989;48.962;9.182;2023-12-29T02:11:04;10.70;99.90
19680;DHT22;9989;48.962;9.182;2023-12-29T02:13:29;10.70;99.90
19680;DHT22;9989;48.962;9.182;2023-12-29T02:16:26;10.70;99.90
19680;DHT22;9989;48.962;9.182;2023-12-29T02:18:56;10.70;99.90
19680;DHT22;9989;48.962;9.182;2023-12-29T02:21:26;10.70;99.90
19680;DHT22;9989;48.962;9.182;2023-12-29T02:23:52;10.70;99.90
19680;DHT22;9989;48.962;9.182;2023-12-29T02:26:20;10.80;99.90
19680;DHT22;9989;48.962;9.182;2023-12-29T02:28:54;10.80;99.90
19680;DHT22;9989;48.962;9.182;2023-12-29T02:31:24;10.80;99.90
19680;DHT22;9989;48.962;9.182;2023-12-29T02:33:52;10.80;99.90
19680;DHT22;9989;48.962;9.182;2023-12-29T02:36:19;10.70;99.90
19680;DHT22;9989;48.962;9.182;2023-12-29T02:38:45;10.70;99.90
19680;DHT22;9989;48.962;9.182;2023-12-29T02:41:11;10.80;99.90
19680;DHT22;9989;48.962;9.182;2023-12-29T02:43:38;10.80;99.90
19680;DHT22;9989;48.962;9.182;2023-12-29T02:46:04;10.80;99.90
19680;DHT22;9989;48.962;9.182;2023-12-29T02:48:30;10.80;99.90
19680;DHT22;9989;48.962;9.182;2023-12-29T02:50:55;10.80;99.90
19680;DHT22;9989;48.962;9.182;2023-12-29T02:53:21;10.80;99.90
19680;DHT22;9989;48.962;9.182;2023-12-29T02:55:47;10.80;99.90
19680;DHT22;9989;48.962;9.182;2023-12-29T02:58:12;10.80;99.90
19680;DHT22;9989;48.962;9.182;2023-12-29T03:00:38;10.80;99.90
19680;DHT22;9989;48.962;9.182;2023-12-29T03:03:04;10.80;99.90
19680;DHT22;9989;48.962;9.182;2023-12-29T03:05:29;10.70;99.90
19680;DHT22;9989;48.962;9.182;2023-12-29T03:07:55;10.80;99.90
19680;DHT22;9989;48.962;9.182;2023-12-29T03:10:20;10.80;99.90
19680;DHT22;9989;48.962;9.182;2023-12-29T03:12:46;10.80;99.90
19680;DHT22;9989;48.962;9.182;2023-12-29T03:15:12;10.80;99.90
19680;DHT22;9989;48.962;9.182;2023-12-29T03:17:37;10.80;99.90
19680;DHT22;9989;48.962;9.182;2023-12-29T03:20:03;10.80;99.90
19680;DHT22;9989;48.962;9.182;2023-12-29T03:22:30;10.80;99.90
19680;DHT22;9989;48.962;9.182;2023-12-29T03:24:55;10.80;99.90
19680;DHT22;9989;48.962;9.182;2023-12-29T03:27:21;10.80;99.90
19680;DHT22;9989;48.962;9.182;2023-12-29T03:29:47;10.80;99.90
19680;DHT22;9989;48.962;9.182;2023-12-29T03:32:12;10.80;99.90
19680;DHT22;9989;48.962;9.182;2023-12-29T03:34:38;10.90;99.90
19680;DHT22;9989;48.962;9.182;2023-12-29T03:37:04;10.90;99.90
19680;DHT22;9989;48.962;9.182;2023-12-29T03:39:29;10.90;99.90
19680;DHT22;9989;48.962;9.182;2023-12-29T03:41:55;10.80;99.90
19680;DHT22;9989;48.962;9.182;2023-12-29T03:44:21;10.80;99.90
19680;DHT22;9989;48.962;9.182;2023-12-29T03:46:46;10.80;99.90
19680;DHT22;9989;48.962;9.182;2023-12-29T03:49:12;10.70;99.90
19680;DHT22;9989;48.962;9.182;2023-12-29T03:51:37;10.70;99.90
19680;DHT22;9989;48.962;9.182;2023-12-29T03:54:03;10.70;99.90
19680;DHT22;9989;48.962;9.182;2023-12-29T03:56:29;10.70;99.90
19680;DHT22;9989;48.962;9.182;2023-12-29T03:58:54;10.70;99.90
19680;DHT22;9989;48.962;9.182;2023-12-29T04:01:20;10.70;99.90
19680;DHT22;9989;48.962;9.182;2023-12-29T04:03:46;10.60;99.90
19680;DHT22;9989;48.962;9.182;2023-12-29T04:06:12;10.60;99.90
19680;DHT22;9989;48.962;9.182;2023-12-29T04:08:38;10.60;99.90
19680;DHT22;9989;48.962;9.182;2023-12-29T04:11:04;10.60;99.90
19680;DHT22;9989;48.962;9.182;2023-12-29T04:13:30;10.60;99.90
19680;DHT22;9989;48.962;9.182;2023-12-29T04:15:56;10.50;99.90
19680;DHT22;9989;48.962;9.182;2023-12-29T04:18:22;10.50;99.90
19680;DHT22;9989;48.962;9.182;2023-12-29T04:20:48;10.50;99.90
19680;DHT22;9989;48.962;9.182;2023-12-29T04:23:14;10.40;99.90
19680;DHT22;9989;48.962;9.182;2023-12-29T04:25:40;10.40;99.90
19680;DHT22;9989;48.962;9.182;2023-12-29T04:28:09;10.40;99.90
19680;DHT22;9989;48.962;9.182;2023-12-29T04:30:35;10.30;99.90
19680;DHT22;9989;48.962;9.182;2023-12-29T04:33:01;10.30;99.90
19680;DHT22;9989;48.962;9.182;2023-12-29T04:35:26;10.30;99.90
19680;DHT22;9989;48.962;9.182;2023-12-29T04:37:52;10.40;99.90
19680;DHT22;9989;48.962;9.182;2023-12-29T04:40:18;10.40;99.90
19680;DHT22;9989;48.962;9.182;2023-12-29T04:42:44;10.40;99.90
19680;DHT22;9989;48.962;9.182;2023-12-29T04:45:10;10.40;99.90
19680;DHT22;9989;48.962;9.182;2023-12-29T04:47:36;10.50;99.90
19680;DHT22;9989;48.962;9.182;2023-12-29T04:50:02;10.50;99.90
19680;DHT22;9989;48.962;9.182;2023-12-29T04:52:28;10.50;99.90
19680;DHT22;9989;48.962;9.182;2023-12-29T04:54:53;10.50;99.90
19680;DHT22;9989;48.962;9.182;2023-12-29T04:57:19;10.40;99.90
19680;DHT22;9989;48.962;9.182;2023-12-29T04:59:45;10.40;99.90
19680;DHT22;9989;48.962;9.182;2023-12-29T05:02:11;10.40;99.90
19680;DHT22;9989;48.962;9.182;2023-12-29T05:04:36;10.40;99.90
19680;DHT22;9989;48.962;9.182;2023-12-29T05:07:05;10.40;99.90
19680;DHT22;9989;48.962;9.182;2023-12-29T05:09:30;10.40;99.90
19680;DHT22;9989;48.962;9.182;2023-12-29T05:11:56;10.40;99.90
19680;DHT22;9989;48.962;9.182;2023-12-29T05:14:21;10.40;99.90
19680;DHT22;9989;48.962;9.182;2023-12-29T05:16:47;10.40;99.90
19680;DHT22;9989;48.962;9.182;2023-12-29T05:19:13;10.40;99.90
19680;DHT22;9989;48.962;9.182;2023-12-29T05:21:38;10.30;99.90
19680;DHT22;9989;48.962;9.182;2023-12-29T05:24:04;10.30;99.90
19680;DHT22;9989;48.962;9.182;2023-12-29T05:26:31;10.30;99.90
19680;DHT22;9989;48.962;9.182;2023-12-29T05:28:57;10.30;99.90
19680;DHT22;9989;48.962;9.182;2023-12-29T05:31:23;10.30;99.90
19680;DHT22;9989;48.962;9.182;2023-12-29T05:33:48;10.30;99.90
19680;DHT22;9989;48.962;9.182;2023-12-29T05:36:14;10.20;99.90
19680;DHT22;9989;48.962;9.182;2023-12-29T05:38:39;10.20;99.90
19680;DHT22;9989;48.962;9.182;2023-12-29T05:41:07;10.20;99.90
19680;DHT22;9989;48.962;9.182;2023-12-29T05:43:33;10.20;99.90
19680;DHT22;9989;48.962;9.182;2023-12-29T05:46:00;10.20;99.90
19680;DHT22;9989;48.962;9.182;2023-12-29T05:48:26;10.20;99.90
19680;DHT22;9989;48.962;9.182;2023-12-29T05:50:52;10.20;99.90
19680;DHT22;9989;48.962;9.182;2023-12-29T05:53:17;10.20;99.90
19680;DHT22;9989;48.962;9.182;2023-12-29T05:55:43;10.20;99.90
19680;DHT22;9989;48.962;9.182;2023-12-29T05:58:09;10.10;99.90
19680;DHT22;9989;48.962;9.182;2023-12-29T06:00:36;10.20;99.90
19680;DHT22;9989;48.962;9.182;2023-12-29T06:03:02;10.10;99.90
19680;DHT22;9989;48.962;9.182;2023-12-29T06:05:30;10.10;99.90
19680;DHT22;9989;48.962;9.182;2023-12-29T06:07:55;10.10;99.90
19680;DHT22;9989;48.962;9.182;2023-12-29T06:10:21;10.10;99.90
19680;DHT22;9989;48.962;9.182;2023-12-29T06:12:47;10.20;99.90
19680;DHT22;9989;48.962;9.182;2023-12-29T06:15:13;10.10;99.90
19680;DHT22;9989;48.962;9.182;2023-12-29T06:17:42;10.10;99.90
19680;DHT22;9989;48.962;9.182;2023-12-29T06:20:09;10.10;99.90
19680;DHT22;9989;48.962;9.182;2023-12-29T06:22:39;10.10;99.90
19680;DHT22;9989;48.962;9.182;2023-12-29T06:25:09;10.10;99.90
19680;DHT22;9989;48.962;9.182;2023-12-29T06:27:36;10.00;99.90
19680;DHT22;9989;48.962;9.182;2023-12-29T06:30:07;10.10;99.90
19680;DHT22;9989;48.962;9.182;2023-12-29T06:32:34;10.00;99.90
19680;DHT22;9989;48.962;9.182;2023-12-29T06:35:01;10.00;99.90
19680;DHT22;9989;48.962;9.182;2023-12-29T06:37:27;10.00;99.90
19680;DHT22;9989;48.962;9.182;2023-12-29T06:39:53;10.00;99.90
19680;DHT22;9989;48.962;9.182;2023-12-29T06:42:20;10.00;99.90
19680;DHT22;9989;48.962;9.182;2023-12-29T06:44:47;10.00;99.90
19680;DHT22;9989;48.962;9.182;2023-12-29T06:47:13;10.00;99.90
19680;DHT22;9989;48.962;9.182;2023-12-29T06:49:40;10.00;99.90
19680;DHT22;9989;48.962;9.182;2023-12-29T06:52:07;10.00;99.90
19680;DHT22;9989;48.962;9.182;2023-12-29T06:54:34;9.90;99.90
19680;DHT22;9989;48.962;9.182;2023-12-29T06:57:00;9.90;99.90
19680;DHT22;9989;48.962;9.182;2023-12-29T06:59:26;9.90;99.90
19680;DHT22;9989;48.962;9.182;2023-12-29T07:01:53;9.90;99.90
19680;DHT22;9989;48.962;9.182;2023-12-29T07:04:19;9.90;99.90
19680;DHT22;9989;48.962;9.182;2023-12-29T07:06:45;9.90;99.90
19680;DHT22;9989;48.962;9.182;2023-12-29T07:09:11;9.90;99.90
19680;DHT22;9989;48.962;9.182;2023-12-29T07:11:38;9.90;99.90
19680;DHT22;9989;48.962;9.182;2023-12-29T07:14:05;10.00;99.90
19680;DHT22;9989;48.962;9.182;2023-12-29T07:16:32;10.00;99.90
19680;DHT22;9989;48.962;9.182;2023-12-29T07:18:58;10.00;99.90
19680;DHT22;9989;48.962;9.182;2023-12-29T07:21:25;10.10;99.90
19680;DHT22;9989;48.962;9.182;2023-12-29T07:24:12;10.10;99.90
19680;DHT22;9989;48.962;9.182;2023-12-29T07:26:37;10.10;99.90
19680;DHT22;9989;48.962;9.182;2023-12-29T07:29:03;10.10;99.90
19680;DHT22;9989;48.962;9.182;2023-12-29T07:31:29;10.10;99.90
19680;DHT22;9989;48.962;9.182;2023-12-29T07:33:55;10.20;99.90
19680;DHT22;9989;48.962;9.182;2023-12-29T07:36:20;10.20;99.90
19680;DHT22;9989;48.962;9.182;2023-12-29T07:38:46;10.20;99.90
19680;DHT22;9989;48.962;9.182;2023-12-29T07:41:12;10.30;99.90
19680;DHT22;9989;48.962;9.182;2023-12-29T07:43:38;10.30;99.90
19680;DHT22;9989;48.962;9.182;2023-12-29T07:46:03;10.40;99.90
19680;DHT22;9989;48.962;9.182;2023-12-29T07:48:29;10.40;99.90
19680;DHT22;9989;48.962;9.182;2023-12-29T07:50:56;10.40;99.90
19680;DHT22;9989;48.962;9.182;2023-12-29T07:53:24;10.50;99.90
19680;DHT22;9989;48.962;9.182;2023-12-29T07:55:49;10.50;99.90
19680;DHT22;9989;48.962;9.182;2023-12-29T07:58:17;10.50;99.90
19680;DHT22;9989;48.962;9.182;2023-12-29T08:00:43;10.50;99.90
19680;DHT22;9989;48.962;9.182;2023-12-29T08:03:08;10.50;99.90
19680;DHT22;9989;48.962;9.182;2023-12-29T08:05:34;10.50;99.90
19680;DHT22;9989;48.962;9.182;2023-12-29T08:08:00;10.50;99.90
19680;DHT22;9989;48.962;9.182;2023-12-29T08:10:25;10.50;99.90
19680;DHT22;9989;48.962;9.182;2023-12-29T08:12:51;10.50;99.90
19680;DHT22;9989;48.962;9.182;2023-12-29T08:15:17;10.50;99.90
19680;DHT22;9989;48.962;9.182;2023-12-29T08:17:43;10.50;99.90
19680;DHT22;9989;48.962;9.182;2023-12-29T08:20:09;10.50;99.90
19680;DHT22;9989;48.962;9.182;2023-12-29T08:22:35;10.60;99.90
19680;DHT22;9989;48.962;9.182;2023-12-29T08:25:01;10.60;99.90
19680;DHT22;9989;48.962;9.182;2023-12-29T08:27:26;10.60;99.90
19680;DHT22;9989;48.962;9.182;2023-12-29T08:29:52;10.70;99.90
19680;DHT22;9989;48.962;9.182;2023-12-29T08:32:19;10.70;99.90
19680;DHT22;9989;48.962;9.182;2023-12-29T08:34:44;10.70;99.90
19680;DHT22;9989;48.962;9.182;2023-12-29T08:37:10;10.70;99.90
19680;DHT22;9989;48.962;9.182;2023-12-29T08:39:36;10.80;99.90
19680;DHT22;9989;48.962;9.182;2023-12-29T08:42:01;10.80;99.90
19680;DHT22;9989;48.962;9.182;2023-12-29T08:44:27;10.90;99.90
19680;DHT22;9989;48.962;9.182;2023-12-29T08:46:53;10.90;99.90
19680;DHT22;9989;48.962;9.182;2023-12-29T08:49:18;10.90;99.90
19680;DHT22;9989;48.962;9.182;2023-12-29T08:51:44;10.90;99.90
19680;DHT22;9989;48.962;9.182;2023-12-29T08:54:10;10.90;99.90
19680;DHT22;9989;48.962;9.182;2023-12-29T08:56:35;11.00;99.90
19680;DHT22;9989;48.962;9.182;2023-12-29T08:59:01;11.00;99.90
19680;DHT22;9989;48.962;9.182;2023-12-29T09:01:27;11.00;99.90
19680;DHT22;9989;48.962;9.182;2023-12-29T09:03:52;11.00;99.90
19680;DHT22;9989;48.962;9.182;2023-12-29T09:06:18;11.00;99.90
19680;DHT22;9989;48.962;9.182;2023-12-29T09:08:44;11.10;99.90
19680;DHT22;9989;48.962;9.182;2023-12-29T09:11:09;11.10;99.90
19680;DHT22;9989;48.962;9.182;2023-12-29T09:13:35;11.10;99.90
19680;DHT22;9989;48.962;9.182;2023-12-29T09:16:01;11.10;99.90
19680;DHT22;9989;48.962;9.182;2023-12-29T09:18:26;11.10;99.90
19680;DHT22;9989;48.962;9.182;2023-12-29T09:20:52;11.10;99.90
19680;DHT22;9989;48.962;9.182;2023-12-29T09:23:17;11.10;99.90
19680;DHT22;9989;48.962;9.182;2023-12-29T09:25:43;11.10;99.90
19680;DHT22;9989;48.962;9.182;2023-12-29T09:28:09;11.10;99.90
19680;DHT22;9989;48.962;9.182;2023-12-29T09:30:35;11.10;99.90
19680;DHT22;9989;48.962;9.182;2023-12-29T09:33:00;11.10;99.90
19680;DHT22;9989;48.962;9.182;2023-12-29T09:35:26;11.10;99.90
19680;DHT22;9989;48.962;9.182;2023-12-29T09:37:51;11.10;99.90
19680;DHT22;9989;48.962;9.182;2023-12-29T09:40:17;11.20;99.90
19680;DHT22;9989;48.962;9.182;2023-12-29T09:42:44;11.20;99.90
19680;DHT22;9989;48.962;9.182;2023-12-29T09:45:11;11.20;99.90
19680;DHT22;9989;48.962;9.182;2023-12-29T09:47:42;11.30;99.90
19680;DHT22;9989;48.962;9.182;2023-12-29T09:50:11;11.30;99.90
19680;DHT22;9989;48.962;9.182;2023-12-29T09:52:40;11.40;99.90
19680;DHT22;9989;48.962;9.182;2023-12-29T09:55:10;11.40;99.90
19680;DHT22;9989;48.962;9.182;2023-12-29T09:57:38;11.40;99.90
19680;DHT22;9989;48.962;9.182;2023-12-29T10:00:06;11.40;99.90
19680;DHT22;9989;48.962;9.182;2023-12-29T10:02:36;11.40;99.90
19680;DHT22;9989;48.962;9.182;2023-12-29T10:05:03;11.50;99.90
19680;DHT22;9989;48.962;9.182;2023-12-29T10:07:32;11.50;99.90
19680;DHT22;9989;48.962;9.182;2023-12-29T10:10:01;11.40;99.90
19680;DHT22;9989;48.962;9.182;2023-12-29T10:12:28;11.40;99.90
19680;DHT22;9989;48.962;9.182;2023-12-29T10:26:13;11.60;99.90
19680;DHT22;9989;48.962;9.182;2023-12-29T10:28:40;11.70;99.90
19680;DHT22;9989;48.962;9.182;2023-12-29T10:31:06;12.10;99.90
19680;DHT22;9989;48.962;9.182;2023-12-29T10:33:35;12.90;99.90
19680;DHT22;9989;48.962;9.182;2023-12-29T10:36:02;14.20;99.90
19680;DHT22;9989;48.962;9.182;2023-12-29T10:38:29;15.60;99.90
19680;DHT22;9989;48.962;9.182;2023-12-29T10:41:00;16.80;99.90
19680;DHT22;9989;48.962;9.182;2023-12-29T10:43:35;17.70;99.90
19680;DHT22;9989;48.962;9.182;2023-12-29T10:46:07;18.70;99.90
19680;DHT22;9989;48.962;9.182;2023-12-29T10:48:39;19.30;99.90
19680;DHT22;9989;48.962;9.182;2023-12-29T10:51:05;19.70;99.90
19680;DHT22;9989;48.962;9.182;2023-12-29T10:53:35;20.20;99.90
19680;DHT22;9989;48.962;9.182;2023-12-29T10:56:01;20.90;99.90
19680;DHT22;9989;48.962;9.182;2023-12-29T10:58:28;21.30;99.90
19680;DHT22;9989;48.962;9.182;2023-12-29T11:00:57;21.50;99.00
19680;DHT22;9989;48.962;9.182;2023-12-29T11:03:23;21.80;97.50
19680;DHT22;9989;48.962;9.182;2023-12-29T11:05:51;22.30;96.10
19680;DHT22;9989;48.962;9.182;2023-12-29T11:08:21;22.80;93.90
19680;DHT22;9989;48.962;9.182;2023-12-29T11:10:50;23.30;92.40
19680;DHT22;9989;48.962;9.182;2023-12-29T11:13:16;23.90;90.90
19680;DHT22;9989;48.962;9.182;2023-12-29T11:15:43;24.40;88.30
19680;DHT22;9989;48.962;9.182;2023-12-29T11:18:13;24.90;84.50
19680;DHT22;9989;48.962;9.182;2023-12-29T11:20:39;25.30;81.70
19680;DHT22;9989;48.962;9.182;2023-12-29T11:23:07;25.40;78.10
19680;DHT22;9989;48.962;9.182;2023-12-29T11:25:34;25.30;76.20
19680;DHT22;9989;48.962;9.182;2023-12-29T11:28:00;25.30;74.60
19680;DHT22;9989;48.962;9.182;2023-12-29T11:30:26;25.50;72.70
19680;DHT22;9989;48.962;9.182;2023-12-29T11:33:18;25.50;71.00
19680;DHT22;9989;48.962;9.182;2023-12-29T11:39:26;23.70;73.40
19680;DHT22;9989;48.962;9.182;2023-12-29T11:42:04;23.60;74.20
19680;DHT22;9989;48.962;9.182;2023-12-29T11:44:31;23.60;72.50
19680;DHT22;9989;48.962;9.182;2023-12-29T11:46:58;23.60;71.70
19680;DHT22;9989;48.962;9.182;2023-12-29T11:49:25;24.00;71.50
19680;DHT22;9989;48.962;9.182;2023-12-29T11:51:51;24.30;69.00
19680;DHT22;9989;48.962;9.182;2023-12-29T11:54:24;23.90;67.50
19680;DHT22;9989;48.962;9.182;2023-12-29T11:56:50;23.60;67.80
19680;DHT22;9989;48.962;9.182;2023-12-29T12:01:43;21.70;72.00
19680;DHT22;9989;48.962;9.182;2023-12-29T12:06:59;19.10;79.20
19680;DHT22;9989;48.962;9.182;2023-12-29T12:09:25;18.50;82.00
19680;DHT22;9989;48.962;9.182;2023-12-29T12:11:51;18.10;84.40
19680;DHT22;9989;48.962;9.182;2023-12-29T12:14:45;17.90;85.20
19680;DHT22;9989;48.962;9.182;2023-12-29T12:17:11;17.60;86.00
19680;DHT22;9989;48.962;9.182;2023-12-29T12:19:37;17.20;87.40
19680;DHT22;9989;48.962;9.182;2023-12-29T12:22:03;17.00;88.20
19680;DHT22;9989;48.962;9.182;2023-12-29T12:24:33;17.00;88.70
19680;DHT22;9989;48.962;9.182;2023-12-29T12:27:00;16.90;89.50
19680;DHT22;9989;48.962;9.182;2023-12-29T12:29:27;16.70;90.00
19680;DHT22;9989;48.962;9.182;2023-12-29T12:31:56;16.40;90.60
19680;DHT22;9989;48.962;9.182;2023-12-29T12:34:22;16.10;91.20
19680;DHT22;9989;48.962;9.182;2023-12-29T12:36:52;15.80;91.80
19680;DHT22;9989;48.962;9.182;2023-12-29T12:39:18;15.50;92.30
19680;DHT22;9989;48.962;9.182;2023-12-29T12:41:44;15.30;93.20
19680;DHT22;9989;48.962;9.182;2023-12-29T12:44:12;15.10;93.80
19680;DHT22;9989;48.962;9.182;2023-12-29T12:46:51;14.90;93.80
19680;DHT22;9989;48.962;9.182;2023-12-29T12:49:22;14.60;93.80
19680;DHT22;9989;48.962;9.182;2023-12-29T12:51:48;14.50;94.50
19680;DHT22;9989;48.962;9.182;2023-12-29T12:54:17;14.50;95.30
19680;DHT22;9989;48.962;9.182;2023-12-29T12:56:45;14.40;95.30
19680;DHT22;9989;48.962;9.182;2023-12-29T12:59:12;14.30;95.30
19680;DHT22;9989;48.962;9.182;2023-12-29T13:01:38;14.30;95.60
19680;DHT22;9989;48.962;9.182;2023-12-29T13:04:04;14.30;95.50
19680;DHT22;9989;48.962;9.182;2023-12-29T13:06:34;14.20;95.70
19680;DHT22;9989;48.962;9.182;2023-12-29T13:09:01;14.10;95.90
19680;DHT22;9989;48.962;9.182;2023-12-29T13:11:33;14.00;96.40
19680;DHT22;9989;48.962;9.182;2023-12-29T13:13:59;14.00;96.70
19680;DHT22;9989;48.962;9.182;2023-12-29T13:16:36;13.90;97.50
19680;DHT22;9989;48.962;9.182;2023-12-29T13:19:21;13.90;97.30
19680;DHT22;9989;48.962;9.182;2023-12-29T13:21:52;13.90;97.90
19680;DHT22;9989;48.962;9.182;2023-12-29T13:24:22;13.90;98.10
19680;DHT22;9989;48.962;9.182;2023-12-29T13:26:51;13.90;98.00
19680;DHT22;9989;48.962;9.182;2023-12-29T13:29:19;13.80;98.40
19680;DHT22;9989;48.962;9.182;2023-12-29T13:31:49;13.80;98.60
19680;DHT22;9989;48.962;9.182;2023-12-29T13:34:39;13.80;98.90
19680;DHT22;9989;48.962;9.182;2023-12-29T13:42:05;13.80;99.40
19680;DHT22;9989;48.962;9.182;2023-12-29T13:44:32;13.80;99.70
19680;DHT22;9989;48.962;9.182;2023-12-29T13:46:58;13.70;99.70
19680;DHT22;9989;48.962;9.182;2023-12-29T13:49:24;13.70;99.90
19680;DHT22;9989;48.962;9.182;2023-12-29T13:51:50;13.60;99.90
19680;DHT22;9989;48.962;9.182;2023-12-29T13:54:16;13.60;99.90
19680;DHT22;9989;48.962;9.182;2023-12-29T13:56:52;13.60;99.90
19680;DHT22;9989;48.962;9.182;2023-12-29T13:59:19;13.50;99.90
19680;DHT22;9989;48.962;9.182;2023-12-29T14:01:44;13.50;99.90
19680;DHT22;9989;48.962;9.182;2023-12-29T14:04:11;13.50;99.90
19680;DHT22;9989;48.962;9.182;2023-12-29T14:06:39;13.50;99.90
19680;DHT22;9989;48.962;9.182;2023-12-29T14:09:06;13.50;99.90
19680;DHT22;9989;48.962;9.182;2023-12-29T14:11:32;13.40;99.90
19680;DHT22;9989;48.962;9.182;2023-12-29T14:13:58;13.40;99.90
19680;DHT22;9989;48.962;9.182;2023-12-29T14:16:23;13.40;99.90
19680;DHT22;9989;48.962;9.182;2023-12-29T14:18:53;13.40;99.90
19680;DHT22;9989;48.962;9.182;2023-12-29T14:21:29;13.40;99.90
19680;DHT22;9989;48.962;9.182;2023-12-29T14:24:12;13.40;99.90
19680;DHT22;9989;48.962;9.182;2023-12-29T14:26:39;13.30;99.90
19680;DHT22;9989;48.962;9.182;2023-12-29T14:29:08;13.30;99.90
19680;DHT22;9989;48.962;9.182;2023-12-29T14:31:43;13.30;99.90
19680;DHT22;9989;48.962;9.182;2023-12-29T14:34:10;13.20;99.90
19680;DHT22;9989;48.962;9.182;2023-12-29T14:36:37;13.20;99.90
19680;DHT22;9989;48.962;9.182;2023-12-29T14:39:03;13.10;99.90
19680;DHT22;9989;48.962;9.182;2023-12-29T14:41:30;13.10;99.90
19680;DHT22;9989;48.962;9.182;2023-12-29T14:43:56;13.00;99.90
19680;DHT22;9989;48.962;9.182;2023-12-29T14:46:22;13.00;99.90
19680;DHT22;9989;48.962;9.182;2023-12-29T14:48:48;13.00;99.90
19680;DHT22;9989;48.962;9.182;2023-12-29T14:51:15;13.00;99.90
19680;DHT22;9989;48.962;9.182;2023-12-29T14:53:44;13.00;99.90
19680;DHT22;9989;48.962;9.182;2023-12-29T14:56:10;13.10;99.90
19680;DHT22;9989;48.962;9.182;2023-12-29T14:58:36;13.20;99.90
19680;DHT22;9989;48.962;9.182;2023-12-29T15:01:02;13.30;99.90
19680;DHT22;9989;48.962;9.182;2023-12-29T15:03:29;13.50;99.90
19680;DHT22;9989;48.962;9.182;2023-12-29T15:05:54;13.60;99.90
19680;DHT22;9989;48.962;9.182;2023-12-29T15:08:20;13.50;99.90
19680;DHT22;9989;48.962;9.182;2023-12-29T15:10:46;13.60;99.90
19680;DHT22;9989;48.962;9.182;2023-12-29T15:13:12;13.50;99.90
19680;DHT22;9989;48.962;9.182;2023-12-29T15:15:37;13.50;99.90
19680;DHT22;9989;48.962;9.182;2023-12-29T15:18:03;13.50;99.90
19680;DHT22;9989;48.962;9.182;2023-12-29T15:20:29;13.50;99.90
19680;DHT22;9989;48.962;9.182;2023-12-29T15:22:55;13.40;99.90
19680;DHT22;9989;48.962;9.182;2023-12-29T15:25:23;13.30;99.90
19680;DHT22;9989;48.962;9.182;2023-12-29T15:27:50;13.20;99.90
19680;DHT22;9989;48.962;9.182;2023-12-29T15:30:16;13.20;99.90
19680;DHT22;9989;48.962;9.182;2023-12-29T15:32:42;13.10;99.90
19680;DHT22;9989;48.962;9.182;2023-12-29T15:35:07;13.00;99.90
19680;DHT22;9989;48.962;9.182;2023-12-29T15:37:33;12.90;99.90
19680;DHT22;9989;48.962;9.182;2023-12-29T15:39:59;12.80;99.90
19680;DHT22;9989;48.962;9.182;2023-12-29T15:42:29;12.80;99.90
19680;DHT22;9989;48.962;9.182;2023-12-29T15:44:55;12.70;99.90
19680;DHT22;9989;48.962;9.182;2023-12-29T15:47:21;12.70;99.90
19680;DHT22;9989;48.962;9.182;2023-12-29T15:49:47;12.60;99.90
19680;DHT22;9989;48.962;9.182;2023-12-29T15:52:12;12.60;99.90
19680;DHT22;9989;48.962;9.182;2023-12-29T15:54:38;12.60;99.90
19680;DHT22;9989;48.962;9.182;2023-12-29T15:57:04;12.60;99.90
19680;DHT22;9989;48.962;9.182;2023-12-29T15:59:36;12.50;99.90
19680;DHT22;9989;48.962;9.182;2023-12-29T16:02:02;12.50;99.90
19680;DHT22;9989;48.962;9.182;2023-12-29T16:04:28;12.50;99.90
19680;DHT22;9989;48.962;9.182;2023-12-29T16:06:54;12.40;99.90
19680;DHT22;9989;48.962;9.182;2023-12-29T16:09:20;12.40;99.90
19680;DHT22;9989;48.962;9.182;2023-12-29T16:11:46;12.40;99.90
19680;DHT22;9989;48.962;9.182;2023-12-29T16:14:12;12.30;99.90